Time;durP1;ratioP1;P1;durP2;ratioP2;P2;SDS_P1;SDS_P2;PMS_P1;PMS_P2;Temp;Humidity;BMP_temperature;BMP_pressure;BME280_temperature;BME280_humidity;BME280_pressure;Samples;Min_cycle;Max_cycle;Signal;HPM_P1;HPM_P2
2022/12/02 00:02:26;;;;;;;17.42;9.30;;;;;;;3.88;86.08;98573.31;5000177;28;20108;-79
2022/12/02 00:05:24;;;;;;;18.45;8.90;;;;;;;3.73;87.17;98573.00;5001746;28;20042;-79
2022/12/02 00:07:50;;;;;;;19.42;8.55;;;;;;;3.67;88.00;98576.16;5002449;28;20042;-80
2022/12/02 00:10:26;;;;;;;21.00;10.50;;;;;;;3.69;88.23;98572.44;5000382;28;20060;-79
2022/12/02 00:12:52;;;;;;;19.60;9.02;;;;;;;3.64;88.57;98571.25;5003019;28;20376;-80
2022/12/02 00:15:40;;;;;;;20.55;10.02;;;;;;;3.79;89.98;98563.81;5001125;28;20041;-79
2022/12/02 00:18:09;;;;;;;20.80;10.00;;;;;;;4.01;90.17;98569.38;5002684;28;20468;-80
2022/12/02 00:20:35;;;;;;;20.02;10.10;;;;;;;4.09;88.69;98563.50;5001231;28;20125;-79
2022/12/02 00:23:01;;;;;;;19.08;9.98;;;;;;;4.16;87.32;98561.94;5002552;28;20034;-80
2022/12/02 00:25:27;;;;;;;19.98;9.32;;;;;;;4.23;86.76;98562.16;5001777;28;20038;-80
2022/12/02 00:27:52;;;;;;;18.00;9.80;;;;;;;4.29;86.51;98556.38;5007502;28;20021;-80
2022/12/02 00:30:18;;;;;;;17.88;9.15;;;;;;;4.33;86.45;98555.13;4964154;28;1089222;-80
2022/12/02 00:32:43;;;;;;;17.88;10.27;;;;;;;4.25;86.53;98560.22;5003131;28;20045;-80
2022/12/02 00:35:09;;;;;;;20.30;10.10;;;;;;;4.12;86.24;98544.19;4998670;28;20030;-79
2022/12/02 00:37:35;;;;;;;20.55;10.77;;;;;;;4.25;86.82;98550.66;5000256;28;20049;-80
2022/12/02 00:40:00;;;;;;;21.55;10.32;;;;;;;4.29;86.43;98548.56;5002346;28;20037;-80
2022/12/02 00:42:26;;;;;;;20.67;10.15;;;;;;;4.48;86.07;98558.00;5002490;28;20524;-80
2022/12/02 00:47:36;;;;;;;20.50;10.15;;;;;;;4.64;85.46;98545.16;5003260;28;20044;-80
2022/12/02 00:50:01;;;;;;;18.25;9.63;;;;;;;4.76;85.08;98538.75;5002443;28;20038;-79
2022/12/02 00:52:27;;;;;;;21.20;10.90;;;;;;;4.66;83.63;98539.78;5001899;28;20437;-80
2022/12/02 00:54:52;;;;;;;23.90;11.05;;;;;;;4.70;84.71;98541.13;5003011;28;20112;-79
2022/12/02 00:57:18;;;;;;;16.45;9.15;;;;;;;4.64;84.55;98536.53;5000895;28;20129;-79
2022/12/02 00:59:43;;;;;;;20.63;10.63;;;;;;;4.65;84.05;98531.19;5000631;28;20101;-80
2022/12/02 01:02:09;;;;;;;20.15;9.30;;;;;;;4.59;83.78;98534.38;5001972;28;20129;-80
2022/12/02 01:04:34;;;;;;;22.65;10.30;;;;;;;4.62;83.95;98531.50;5002689;28;20038;-79
2022/12/02 01:07:00;;;;;;;19.90;9.98;;;;;;;4.44;83.27;98522.91;5002074;28;20520;-80
2022/12/02 01:09:25;;;;;;;18.33;9.57;;;;;;;4.41;84.58;98526.63;5002112;28;20076;-80
2022/12/02 01:11:51;;;;;;;20.08;9.82;;;;;;;4.50;85.03;98519.72;5002781;28;20152;-80
2022/12/02 01:14:16;;;;;;;19.40;9.55;;;;;;;4.57;83.88;98539.75;5000986;28;20473;-80
2022/12/02 01:16:42;;;;;;;21.33;9.95;;;;;;;4.43;82.65;98522.06;5001988;28;20099;-79
2022/12/02 01:19:07;;;;;;;20.77;9.98;;;;;;;4.47;84.61;98527.78;5002322;28;20121;-80
2022/12/02 01:21:33;;;;;;;16.27;8.68;;;;;;;4.43;84.17;98511.69;5001457;28;20092;-80
2022/12/02 01:23:59;;;;;;;19.00;9.88;;;;;;;4.59;83.68;98521.41;5001529;28;20037;-80
2022/12/02 01:26:24;;;;;;;20.73;10.27;;;;;;;4.68;84.19;98515.31;5001073;28;20129;-79
2022/12/02 01:28:50;;;;;;;19.45;10.02;;;;;;;4.72;82.61;98521.00;5006143;28;20034;-79
2022/12/02 01:31:16;;;;;;;19.38;9.00;;;;;;;4.62;83.35;98504.69;5001270;28;20914;-80
2022/12/02 01:33:42;;;;;;;17.77;9.10;;;;;;;4.66;82.73;98522.41;4998485;28;20059;-79
2022/12/02 01:36:07;;;;;;;20.10;9.25;;;;;;;4.61;82.08;98521.25;4998798;28;20045;-80
2022/12/02 01:38:33;;;;;;;20.77;10.55;;;;;;;4.61;82.87;98513.44;5001865;28;20121;-80
2022/12/02 01:41:00;;;;;;;20.05;9.38;;;;;;;4.64;82.77;98520.94;5002240;28;20482;-80
2022/12/02 01:43:26;;;;;;;17.88;8.55;;;;;;;4.64;82.89;98507.97;5000110;28;20064;-80
2022/12/02 01:45:53;;;;;;;18.25;9.07;;;;;;;4.65;nan;98519.97;5002548;28;20089;-79
2022/12/02 01:48:19;;;;;;;19.27;8.95;;;;;;;4.48;81.71;98513.84;5001275;28;20030;-79
2022/12/02 01:50:46;;;;;;;19.23;9.90;;;;;;;4.46;82.28;98516.59;5001299;28;20053;-80
2022/12/02 01:53:12;;;;;;;19.58;9.10;;;;;;;4.47;82.50;98517.41;5001349;28;20065;-79
2022/12/02 01:55:38;;;;;;;19.38;9.35;;;;;;;4.48;82.90;98508.66;4999972;28;20053;-79
2022/12/02 01:58:04;;;;;;;21.25;10.02;;;;;;;4.57;82.72;98515.53;5001904;28;20789;-80
2022/12/02 02:00:30;;;;;;;17.60;7.95;;;;;;;4.40;81.39;98517.19;5001399;28;20038;-80
2022/12/02 02:02:56;;;;;;;21.80;10.23;;;;;;;4.23;81.68;98505.84;5001781;28;20513;-79
2022/12/02 02:05:33;;;;;;;22.25;10.07;;;;;;;4.37;82.90;98512.28;5001951;28;20031;-79
2022/12/02 02:08:11;;;;;;;17.73;9.60;;;;;;;4.27;81.27;98503.78;5000710;28;20033;-79
2022/12/02 02:10:40;;;;;;;20.58;9.57;;;;;;;4.19;82.59;98508.88;5000649;28;20047;-80
2022/12/02 02:13:08;;;;;;;19.98;9.70;;;;;;;4.14;82.65;98516.28;4999073;28;20069;-80
2022/12/02 02:15:38;;;;;;;18.50;9.65;;;;;;;4.15;83.28;98510.97;4999877;28;20087;-80
2022/12/02 02:18:04;;;;;;;21.02;9.48;;;;;;;4.06;82.71;98501.47;5000292;28;20034;-80
2022/12/02 02:20:29;;;;;;;21.58;10.23;;;;;;;4.09;82.09;98502.97;5002024;28;20121;-80
2022/12/02 02:23:07;;;;;;;18.73;9.48;;;;;;;3.99;82.97;98514.22;5001554;28;20084;-79
2022/12/02 02:25:40;;;;;;;19.05;10.15;;;;;;;4.04;83.39;98511.19;5001229;28;20627;-80
2022/12/02 02:28:08;;;;;;;19.90;9.27;;;;;;;4.14;83.41;98505.91;4999102;28;20064;-80
2022/12/02 02:30:35;;;;;;;20.10;9.80;;;;;;;4.07;83.77;98495.31;5001441;28;20077;-80
2022/12/02 02:33:06;;;;;;;16.52;8.88;;;;;;;4.11;83.81;98485.47;5001044;28;20176;-80
2022/12/02 02:35:38;;;;;;;17.58;9.55;;;;;;;3.99;81.78;98498.66;4998118;28;20037;-80
2022/12/02 02:38:08;;;;;;;19.98;9.85;;;;;;;3.95;83.39;98492.13;5001174;28;20033;-80
2022/12/02 02:40:35;;;;;;;20.67;10.68;;;;;;;3.91;82.66;98501.19;4998414;28;20122;-79
2022/12/02 02:43:02;;;;;;;20.70;9.65;;;;;;;3.84;82.96;98494.97;4998969;28;20449;-80
2022/12/02 02:45:34;;;;;;;22.70;10.45;;;;;;;3.79;83.83;98491.16;5001023;28;20109;-80
2022/12/02 02:48:03;;;;;;;20.15;10.40;;;;;;;3.85;84.51;98495.78;4999190;28;20084;-80
2022/12/02 02:50:30;;;;;;;18.67;8.60;;;;;;;3.77;84.20;98488.69;5000330;28;20058;-80
2022/12/02 02:52:57;;;;;;;17.27;8.90;;;;;;;3.49;84.37;98490.53;5000467;28;20041;-80
2022/12/02 02:55:25;;;;;;;21.15;9.82;;;;;;;3.60;86.67;98492.06;4999133;28;20057;-80
2022/12/02 02:57:52;;;;;;;20.48;10.25;;;;;;;3.69;87.28;98486.03;5000900;28;20084;-80
2022/12/02 03:00:22;;;;;;;20.45;9.63;;;;;;;3.78;87.09;98485.16;5001032;28;20371;-80
2022/12/02 03:02:54;;;;;;;19.67;9.77;;;;;;;3.77;85.18;98483.50;5000900;28;20042;-80
2022/12/02 03:05:21;;;;;;;18.33;8.90;;;;;;;3.78;84.74;98477.38;5000829;28;20118;-80
2022/12/02 03:07:48;;;;;;;17.85;9.73;;;;;;;3.80;85.86;98475.44;5001188;28;20040;-80
2022/12/02 03:10:14;;;;;;;17.88;9.32;;;;;;;3.79;85.50;98470.41;5000882;28;20028;-80
2022/12/02 03:12:40;;;;;;;20.10;10.88;;;;;;;3.69;84.22;98463.50;4999817;28;20045;-80
2022/12/02 03:15:08;;;;;;;17.45;8.90;;;;;;;3.75;84.85;98480.25;5003492;28;20026;-80
2022/12/02 03:17:35;;;;;;;19.85;9.52;;;;;;;3.76;85.61;98474.91;5001259;28;20565;-81
2022/12/02 03:20:01;;;;;;;20.88;10.57;;;;;;;3.64;84.38;98475.28;5000287;28;20034;-80
2022/12/02 03:22:28;;;;;;;22.00;10.32;;;;;;;3.54;84.54;98469.31;5001640;28;20042;-80
2022/12/02 03:24:53;;;;;;;21.75;9.90;;;;;;;3.54;85.05;98461.53;5003770;28;20034;-79
2022/12/02 03:27:19;;;;;;;18.10;8.52;;;;;;;3.54;84.47;98461.53;5006332;28;20083;-80
2022/12/02 03:29:45;;;;;;;18.08;9.60;;;;;;;3.53;84.58;98460.72;5004023;28;20424;-80
2022/12/02 03:32:12;;;;;;;17.70;9.45;;;;;;;3.61;85.61;98462.59;5006254;28;20481;-80
2022/12/02 03:34:40;;;;;;;22.73;10.82;;;;;;;3.59;85.64;98459.31;5000727;28;20448;-80
2022/12/02 03:37:08;;;;;;;19.45;10.68;;;;;;;3.59;85.44;98454.13;5004060;28;20033;-80
2022/12/02 03:39:34;;;;;;;22.10;10.88;;;;;;;3.65;84.62;98458.75;5005435;28;20163;-80
2022/12/02 03:41:59;;;;;;;18.27;8.90;;;;;;;3.58;84.60;98457.69;5003323;28;20109;-79
2022/12/02 03:44:25;;;;;;;19.73;9.13;;;;;;;3.52;84.25;98445.31;5002405;28;20052;-80
2022/12/02 03:46:51;;;;;;;20.33;9.75;;;;;;;3.56;85.04;98455.25;5004489;28;20540;-80
2022/12/02 03:49:18;;;;;;;20.95;9.60;;;;;;;3.52;85.16;98458.28;5000624;28;20033;-79
2022/12/02 03:51:45;;;;;;;22.58;10.65;;;;;;;3.47;84.75;98459.53;5002573;28;20046;-80
2022/12/02 03:54:12;;;;;;;22.70;9.80;;;;;;;3.48;84.79;98450.81;5004151;28;20113;-80
2022/12/02 03:56:41;;;;;;;19.77;9.63;;;;;;;3.53;85.56;98449.53;5003580;28;20034;-80
2022/12/02 03:59:09;;;;;;;24.17;10.07;;;;;;;3.55;84.70;98447.63;5003917;28;20034;-80
2022/12/02 04:01:35;;;;;;;19.30;9.15;;;;;;;3.60;85.38;98441.03;5000075;28;20065;-80
2022/12/02 04:04:01;;;;;;;19.73;9.38;;;;;;;3.69;84.03;98440.16;5003265;28;20057;-79
2022/12/02 04:06:27;;;;;;;20.65;10.20;;;;;;;3.65;84.19;98435.38;5003126;28;20030;-79
2022/12/02 04:08:52;;;;;;;20.35;10.15;;;;;;;3.74;84.86;98439.72;5002914;28;20453;-80
2022/12/02 04:11:18;;;;;;;18.05;9.32;;;;;;;3.79;84.68;98444.47;5005240;28;20045;-80
2022/12/02 04:13:43;;;;;;;18.27;9.30;;;;;;;3.85;84.37;98442.09;4999990;28;20604;-79
2022/12/02 04:16:09;;;;;;;22.40;11.07;;;;;;;3.83;83.10;98438.00;5003866;28;20113;-79
2022/12/02 04:18:34;;;;;;;17.95;8.85;;;;;;;3.88;83.52;98434.00;5003236;28;20113;-80
2022/12/02 04:21:00;;;;;;;19.70;8.93;;;;;;;3.89;83.16;98435.63;5003784;28;20034;-80
2022/12/02 04:23:26;;;;;;;17.33;8.82;;;;;;;3.90;83.24;98442.47;5002594;28;20030;-80
2022/12/02 04:25:51;;;;;;;17.27;9.18;;;;;;;3.90;82.43;98433.84;5002453;28;20040;-80
2022/12/02 04:28:17;;;;;;;20.23;9.80;;;;;;;3.85;82.62;98433.50;5002685;28;20041;-80
2022/12/02 04:30:42;;;;;;;16.27;8.50;;;;;;;3.85;83.17;98436.09;5004393;28;20515;-80
2022/12/02 04:33:08;;;;;;;19.48;9.20;;;;;;;3.86;83.79;98425.56;5005524;28;20045;-80
2022/12/02 04:35:33;;;;;;;17.80;9.10;;;;;;;3.88;83.64;98417.59;4997548;28;20034;-80
2022/12/02 04:37:59;;;;;;;16.23;8.90;;;;;;;3.71;82.83;98414.06;5002877;28;20109;-80
2022/12/02 04:40:25;;;;;;;18.20;9.02;;;;;;;3.75;82.21;98428.38;5002171;28;20117;-80
2022/12/02 04:42:50;;;;;;;18.15;9.27;;;;;;;3.73;82.59;98420.75;5001980;28;20113;-80
2022/12/02 04:45:16;;;;;;;19.33;9.48;;;;;;;3.63;82.12;98424.34;5002455;28;20053;-80
2022/12/02 04:47:42;;;;;;;18.17;9.98;;;;;;;3.62;83.55;98428.72;5002028;28;20052;-80
2022/12/02 04:50:08;;;;;;;17.67;9.48;;;;;;;3.48;81.79;98427.47;5001552;28;20072;-80
2022/12/02 04:52:36;;;;;;;17.08;8.07;;;;;;;3.59;82.89;98423.00;5002688;28;20182;-80
2022/12/02 04:55:02;;;;;;;14.65;7.90;;;;;;;3.42;82.28;98419.47;5003179;28;20062;-80
2022/12/02 04:57:28;;;;;;;16.00;8.70;;;;;;;3.25;83.39;98423.66;5002601;28;20397;-80
2022/12/02 04:59:53;;;;;;;16.80;8.25;;;;;;;3.31;83.68;98424.84;5001395;28;20037;-80
2022/12/02 05:02:19;;;;;;;16.42;8.27;;;;;;;3.34;83.67;98420.16;5001144;28;20081;-80
2022/12/02 05:04:44;;;;;;;17.77;8.80;;;;;;;3.45;83.34;98417.38;5002141;28;20038;-80
2022/12/02 05:07:10;;;;;;;16.70;8.05;;;;;;;3.37;82.14;98421.66;5002813;28;20116;-80
2022/12/02 05:09:35;;;;;;;18.10;8.80;;;;;;;3.39;83.42;98414.56;5002741;28;20038;-80
2022/12/02 05:12:01;;;;;;;13.38;7.65;;;;;;;3.39;82.99;98412.78;5001716;28;20109;-81
2022/12/02 05:14:27;;;;;;;16.83;8.27;;;;;;;3.29;82.79;98411.19;5001867;28;20620;-79
2022/12/02 05:16:52;;;;;;;17.17;8.13;;;;;;;3.35;83.13;98421.78;5001779;28;20030;-79
2022/12/02 05:19:18;;;;;;;14.55;7.32;;;;;;;3.25;82.11;98417.66;4999927;28;20046;-79
2022/12/02 05:21:44;;;;;;;14.85;8.40;;;;;;;3.15;82.57;98421.09;5002769;28;20037;-80
2022/12/02 05:24:09;;;;;;;11.68;6.80;;;;;;;3.18;83.36;98407.06;5001684;28;20068;-80
2022/12/02 05:26:35;;;;;;;19.05;7.78;;;;;;;3.28;83.96;98417.34;5001902;28;20377;-80
2022/12/02 05:29:00;;;;;;;13.75;7.88;;;;;;;3.25;83.65;98410.69;5002636;28;20029;-80
2022/12/02 05:31:26;;;;;;;12.65;6.88;;;;;;;3.41;83.44;98415.22;5001696;28;20649;-80
2022/12/02 05:33:51;;;;;;;16.50;8.02;;;;;;;3.30;82.25;98408.47;5004873;28;20037;-80
2022/12/02 05:36:17;;;;;;;14.77;8.13;;;;;;;3.25;82.41;98417.66;4998911;28;20041;-80
2022/12/02 05:38:43;;;;;;;14.27;7.88;;;;;;;3.20;83.30;98412.91;5001714;28;20112;-79
2022/12/02 05:41:08;;;;;;;15.40;7.70;;;;;;;3.18;82.86;98407.88;5000617;28;20038;-80
2022/12/02 05:43:39;;;;;;;12.48;6.68;;;;;;;3.33;82.77;98418.53;5000466;28;20026;-80
2022/12/02 05:46:15;;;;;;;14.10;7.20;;;;;;;3.33;nan;98408.19;5001616;28;20040;-79
2022/12/02 05:48:42;;;;;;;16.95;8.32;;;;;;;3.23;82.10;98410.81;5001434;28;20076;-80
2022/12/02 05:51:15;;;;;;;13.43;7.82;;;;;;;3.27;82.65;98419.13;5001506;28;20139;-81
2022/12/02 05:53:42;;;;;;;15.18;8.15;;;;;;;3.29;81.92;98412.00;5001192;28;20030;-80
2022/12/02 05:56:34;;;;;;;14.93;7.60;;;;;;;3.26;82.67;98407.13;5000438;28;20045;-81
2022/12/02 05:59:11;;;;;;;13.05;7.70;;;;;;;3.37;83.21;98413.91;5001094;28;20029;-80
2022/12/02 06:01:38;;;;;;;14.48;7.15;;;;;;;3.19;81.58;98419.03;5002160;28;20069;-79
2022/12/02 06:04:22;;;;;;;12.88;8.23;;;;;;;3.17;81.57;98423.53;5001366;28;20069;-79
2022/12/02 06:06:48;;;;;;;16.75;7.82;;;;;;;3.28;82.30;98419.94;5001656;28;20038;-80
2022/12/02 06:09:23;;;;;;;14.45;7.80;;;;;;;3.29;81.78;98416.38;4998633;28;20037;-80
2022/12/02 06:11:49;;;;;;;13.73;7.95;;;;;;;3.37;82.11;98412.13;5001393;28;20246;-80
2022/12/02 06:14:23;;;;;;;14.13;7.63;;;;;;;3.30;81.65;98418.84;5001283;28;20034;-80
2022/12/02 06:16:59;;;;;;;14.30;7.47;;;;;;;3.44;82.25;98418.34;5002890;28;20104;-80
2022/12/02 06:19:53;;;;;;;15.40;7.75;;;;;;;3.43;81.04;98421.91;4999253;28;20441;-80
2022/12/02 06:22:26;;;;;;;8.07;5.07;;;;;;;3.09;80.37;98423.44;5002725;28;20038;-80
2022/12/02 06:24:56;;;;;;;14.77;8.00;;;;;;;3.20;81.85;98429.25;5002379;28;20100;-80
2022/12/02 06:27:21;;;;;;;16.02;7.80;;;;;;;3.22;82.40;98421.34;5001003;28;20614;-80
2022/12/02 06:30:00;;;;;;;13.45;7.68;;;;;;;3.19;81.91;98425.03;4998638;28;20117;-80
2022/12/02 06:32:37;;;;;;;14.88;7.75;;;;;;;3.30;81.76;98425.78;5000580;28;20080;-80
2022/12/02 06:35:18;;;;;;;13.70;8.10;;;;;;;3.33;81.48;98420.31;4998527;28;20164;-79
2022/12/02 06:37:44;;;;;;;15.60;8.40;;;;;;;3.46;82.39;98424.19;5000192;28;20044;-80
2022/12/02 06:40:27;;;;;;;14.43;8.05;;;;;;;3.48;80.83;98422.28;4999452;28;20052;-80
2022/12/02 06:42:55;;;;;;;12.40;6.75;;;;;;;3.27;81.67;98428.69;4997780;28;20030;-80
2022/12/02 06:45:28;;;;;;;12.65;7.07;;;;;;;3.23;80.77;98412.59;5002244;28;20060;-79
2022/12/02 06:48:32;;;;;;;13.57;7.20;;;;;;;3.40;82.00;98408.41;5001167;28;20527;-80
2022/12/02 06:51:17;;;;;;;14.13;7.90;;;;;;;3.31;80.78;98407.50;4999698;28;20501;-80
2022/12/02 06:53:44;;;;;;;13.50;7.45;;;;;;;3.23;80.82;98410.00;5000028;28;20084;-80
2022/12/02 06:56:29;;;;;;;13.50;7.43;;;;;;;3.26;80.47;98412.31;4998871;28;20112;-80
2022/12/02 06:58:54;;;;;;;12.43;6.88;;;;;;;3.19;79.92;98416.47;5002377;28;20532;-80
2022/12/02 07:01:40;;;;;;;12.00;6.90;;;;;;;3.31;81.24;98415.28;5005259;28;20118;-80
2022/12/02 07:04:08;;;;;;;12.05;6.72;;;;;;;3.33;81.05;98415.94;5005528;28;20042;-80
2022/12/02 07:06:44;;;;;;;15.32;7.68;;;;;;;3.31;79.46;98404.09;5005172;28;20034;-80
2022/12/02 07:09:18;;;;;;;13.15;6.90;;;;;;;3.28;79.46;98414.75;5003512;28;20492;-80
2022/12/02 07:11:54;;;;;;;15.10;8.30;;;;;;;3.14;79.42;98414.28;5004526;28;20034;-80
2022/12/02 07:15:13;;;;;;;12.70;7.18;;;;;;;2.94;80.00;98416.16;5004450;28;20424;-80
2022/12/02 07:17:43;;;;;;;13.90;6.85;;;;;;;2.79;80.13;98411.59;5004438;28;20034;-80
2022/12/02 07:20:09;;;;;;;15.45;7.80;;;;;;;2.78;80.69;98413.38;5004365;28;20569;-79
2022/12/02 07:23:22;;;;;;;15.93;7.65;;;;;;;2.86;81.12;98421.22;5005032;28;20034;-79
2022/12/02 07:25:59;;;;;;;12.52;7.20;;;;;;;2.95;80.97;98407.44;5002593;28;20516;-79
2022/12/02 07:28:35;;;;;;;15.73;8.27;;;;;;;2.97;82.18;98415.06;5005995;28;20037;-80
2022/12/02 07:31:20;;;;;;;13.57;6.60;;;;;;;2.95;80.79;98412.63;5006835;28;20052;-79
2022/12/02 07:33:46;;;;;;;15.15;7.32;;;;;;;3.04;81.84;98417.88;5002361;28;20088;-80
2022/12/02 07:36:12;;;;;;;15.25;8.10;;;;;;;2.97;80.32;98412.47;5000881;28;20440;-80
2022/12/02 07:38:37;;;;;;;12.82;8.07;;;;;;;3.11;81.40;98416.34;5004214;28;20046;-80
2022/12/02 07:41:04;;;;;;;14.48;8.20;;;;;;;3.08;80.05;98419.25;5003251;28;20312;-80
2022/12/02 07:43:31;;;;;;;12.55;7.43;;;;;;;3.18;81.96;98422.59;5004023;28;20044;-80
2022/12/02 07:45:57;;;;;;;12.20;7.28;;;;;;;3.12;79.84;98415.38;5002534;28;20053;-80
2022/12/02 07:48:23;;;;;;;16.27;7.88;;;;;;;3.18;81.09;98412.22;5003182;28;20138;-80
2022/12/02 07:50:49;;;;;;;14.38;7.63;;;;;;;3.23;82.28;98412.59;5003429;28;20070;-80
2022/12/02 07:53:14;;;;;;;12.73;7.63;;;;;;;3.35;81.70;98410.63;5002844;28;20414;-80
2022/12/02 07:55:40;;;;;;;13.00;7.22;;;;;;;3.26;80.79;98403.72;5003313;28;20045;-80
2022/12/02 07:58:06;;;;;;;17.92;7.78;;;;;;;3.14;79.52;98398.75;5003520;28;20033;-80
2022/12/02 08:00:31;;;;;;;13.98;7.30;;;;;;;3.25;79.84;98410.69;5004737;28;20038;-80
2022/12/02 08:02:57;;;;;;;13.80;7.60;;;;;;;3.34;80.14;98414.16;5001961;28;20041;-80
2022/12/02 08:05:23;;;;;;;15.32;7.78;;;;;;;3.32;78.84;98405.72;5002232;28;20046;-80
2022/12/02 08:07:49;;;;;;;15.43;8.05;;;;;;;3.33;78.40;98403.00;5004250;28;20363;-80
2022/12/02 08:10:15;;;;;;;13.05;7.32;;;;;;;3.43;79.41;98408.94;5001721;28;20085;-81
2022/12/02 08:12:41;;;;;;;13.90;7.40;;;;;;;3.46;78.88;98416.41;5004116;28;20034;-80
2022/12/02 08:15:11;;;;;;;15.73;7.47;;;;;;;3.32;79.43;98411.72;5000805;28;20048;-80
2022/12/02 08:17:36;;;;;;;14.07;7.43;;;;;;;3.35;78.53;98411.44;5002104;28;20033;-80
2022/12/02 08:20:06;;;;;;;17.38;7.75;;;;;;;3.49;79.56;98416.13;5004000;28;20044;-80
2022/12/02 08:22:31;;;;;;;14.88;7.32;;;;;;;3.41;78.44;98415.22;5003797;28;20057;-80
2022/12/02 08:24:57;;;;;;;15.40;7.68;;;;;;;3.43;78.83;98418.50;5002188;28;20471;-80
2022/12/02 08:27:23;;;;;;;13.52;6.70;;;;;;;3.38;78.31;98421.53;5000972;28;20730;-81
2022/12/02 08:29:49;;;;;;;14.27;8.05;;;;;;;3.41;79.45;98418.63;5002176;28;20601;-80
2022/12/02 08:32:19;;;;;;;14.30;7.80;;;;;;;3.41;78.47;98410.03;5001827;28;20034;-80
2022/12/02 08:34:45;;;;;;;14.07;7.90;;;;;;;3.48;79.88;98414.50;4999647;28;20096;-80
2022/12/02 08:37:13;;;;;;;14.73;7.47;;;;;;;3.41;79.30;98420.41;5003594;28;20038;-80
2022/12/02 08:39:40;;;;;;;14.40;7.80;;;;;;;3.54;80.63;98405.31;5002175;28;20474;-80
2022/12/02 08:42:06;;;;;;;18.85;8.32;;;;;;;3.59;78.38;98410.84;5002025;28;20077;-80
2022/12/02 08:44:32;;;;;;;19.08;8.23;;;;;;;3.63;80.06;98413.97;5001900;28;20037;-80
2022/12/02 08:46:58;;;;;;;18.13;9.30;;;;;;;3.63;78.96;98409.59;5002008;28;20045;-79
2022/12/02 08:49:24;;;;;;;18.73;9.25;;;;;;;3.65;79.00;98401.66;5002777;28;20046;-80
2022/12/02 08:51:50;;;;;;;16.40;8.77;;;;;;;3.75;79.59;98412.81;5003192;28;20026;-80
2022/12/02 08:54:16;;;;;;;14.15;7.55;;;;;;;3.72;79.47;98410.50;5002542;28;20470;-80
2022/12/02 08:56:43;;;;;;;15.82;8.10;;;;;;;3.81;80.06;98406.19;5002554;28;20040;-80
2022/12/02 08:59:08;;;;;;;19.10;9.48;;;;;;;3.85;78.46;98403.16;5002459;28;20038;-80
2022/12/02 09:01:34;;;;;;;15.50;8.45;;;;;;;3.79;79.21;98405.53;4999789;28;20044;-80
2022/12/02 09:03:59;;;;;;;17.95;8.68;;;;;;;3.68;78.98;98399.59;5002577;28;20112;-80
2022/12/02 09:06:25;;;;;;;19.27;9.15;;;;;;;3.79;79.83;98403.75;5002623;28;20034;-80
2022/12/02 09:08:51;;;;;;;18.17;9.02;;;;;;;3.79;79.14;98403.75;5001912;28;20489;-80
2022/12/02 09:11:17;;;;;;;18.35;9.30;;;;;;;3.85;78.77;98408.34;5003768;28;20030;-81
2022/12/02 09:13:43;;;;;;;21.98;9.77;;;;;;;3.86;78.64;98402.19;5003345;28;20038;-81
2022/12/02 09:16:09;;;;;;;19.35;8.80;;;;;;;3.90;78.71;98408.72;5002553;28;20500;-82
2022/12/02 09:18:34;;;;;;;22.05;10.00;;;;;;;3.84;78.92;98405.88;5002855;28;20030;-81
2022/12/02 09:21:00;;;;;;;20.85;9.88;;;;;;;3.79;78.37;98401.16;5004806;28;20117;-82
2022/12/02 09:23:27;;;;;;;17.48;9.27;;;;;;;3.81;78.71;98407.00;5002662;28;20073;-81
2022/12/02 09:25:53;;;;;;;20.10;9.38;;;;;;;3.82;79.59;98393.06;5001799;28;20091;-81
2022/12/02 09:28:20;;;;;;;16.73;8.73;;;;;;;3.81;79.53;98396.63;5001088;28;20038;-81
2022/12/02 09:30:47;;;;;;;18.58;8.55;;;;;;;3.81;79.69;98401.00;5000559;28;20129;-81
2022/12/02 09:33:13;;;;;;;17.23;9.15;;;;;;;3.90;79.37;98400.09;5001046;28;20151;-82
2022/12/02 09:35:38;;;;;;;21.20;9.35;;;;;;;3.89;77.76;98401.06;4999532;28;20105;-81
2022/12/02 09:38:04;;;;;;;15.93;7.93;;;;;;;3.72;77.12;98387.16;5000594;28;20030;-81
2022/12/02 09:40:32;;;;;;;22.50;9.85;;;;;;;3.69;78.46;98393.44;4998460;28;20456;-81
2022/12/02 09:42:58;;;;;;;19.27;9.23;;;;;;;3.59;79.26;98386.69;5001213;28;20060;-81
2022/12/02 09:45:24;;;;;;;21.95;9.52;;;;;;;3.69;78.95;98384.84;5002023;28;20045;-82
2022/12/02 09:47:52;;;;;;;19.00;10.10;;;;;;;3.71;79.34;98390.69;4999423;28;20113;-82
2022/12/02 09:50:17;;;;;;;20.52;10.60;;;;;;;3.76;79.81;98399.66;5000009;28;20864;-81
2022/12/02 09:52:45;;;;;;;19.80;9.68;;;;;;;3.84;79.84;98388.56;5002393;28;20041;-81
2022/12/02 09:55:17;;;;;;;20.58;9.82;;;;;;;4.06;81.59;98394.25;5000592;28;20367;-81
2022/12/02 09:57:44;;;;;;;20.50;9.25;;;;;;;4.20;81.38;98391.13;5001616;28;20030;-81
2022/12/02 10:00:21;;;;;;;28.40;11.35;;;;;;;3.97;78.33;98390.78;4999631;28;20069;-82
2022/12/02 10:02:50;;;;;;;22.40;11.07;;;;;;;3.93;78.61;98385.06;5004256;28;20137;-82
2022/12/02 10:05:25;;;;;;;25.67;11.32;;;;;;;4.05;79.84;98392.63;5000124;28;20109;-83
2022/12/02 10:07:55;;;;;;;23.35;10.20;;;;;;;4.06;79.11;98389.03;5000669;28;20480;-81
2022/12/02 10:10:26;;;;;;;25.08;11.25;;;;;;;3.91;78.63;98392.19;5000528;28;20474;-81
2022/12/02 10:12:53;;;;;;;;;;;;;;;3.92;80.47;98383.44;5000593;28;20029;-82
2022/12/02 10:15:26;;;;;;;24.75;11.10;;;;;;;3.86;79.28;98389.22;5000275;28;19933;-82
2022/12/02 10:17:53;;;;;;;25.98;11.30;;;;;;;3.94;80.95;98381.50;5000890;28;20030;-81
2022/12/02 10:20:27;;;;;;;27.10;12.55;;;;;;;3.89;79.72;98372.53;5000942;28;20040;-82
2022/12/02 10:23:24;;;;;;;29.13;12.30;;;;;;;4.01;81.04;98372.13;5002696;28;20029;-81
2022/12/02 10:26:05;;;;;;;33.47;13.52;;;;;;;4.17;80.33;98375.81;4999971;28;20053;-82
2022/12/02 10:28:36;;;;;;;33.58;12.93;;;;;;;4.22;79.26;98368.41;5001633;28;20545;-81
2022/12/02 10:31:21;;;;;;;28.42;12.00;;;;;;;4.14;79.33;98369.16;5001417;28;20108;-81
2022/12/02 10:33:58;;;;;;;38.38;15.45;;;;;;;4.15;79.34;98364.78;5003204;28;20441;-81
2022/12/02 10:36:40;;;;;;;31.70;14.25;;;;;;;4.30;80.69;98360.66;5003387;28;20046;-82
2022/12/02 10:39:27;;;;;;;40.67;16.38;;;;;;;4.30;79.49;98365.84;5007308;28;20532;-81
2022/12/02 10:42:07;;;;;;;35.25;15.18;;;;;;;4.34;78.34;98364.59;5004423;28;20034;-82
2022/12/02 10:44:36;;;;;;;41.60;16.13;;;;;;;4.46;79.74;98365.94;5004791;28;20030;-81
2022/12/02 10:47:16;;;;;;;39.20;16.10;;;;;;;4.59;79.97;98365.53;5006283;28;20089;-81
2022/12/02 10:49:47;;;;;;;41.53;17.87;;;;;;;4.67;78.77;98367.34;5000275;28;20486;-81
2022/12/02 10:52:13;;;;;;;;;;;;;;;4.66;79.36;98350.13;5003274;28;20374;-81
2022/12/02 10:54:47;;;;;;;44.05;17.27;;;;;;;4.53;77.24;98353.16;5006736;28;20612;-81
2022/12/02 10:57:25;;;;;;;38.75;15.80;;;;;;;4.55;79.36;98354.63;5004275;28;20038;-81
2022/12/02 10:59:53;;;;;;;38.90;15.23;;;;;;;4.62;79.60;98359.19;5004542;28;20488;-81
2022/12/02 11:02:30;;;;;;;38.58;14.25;;;;;;;4.54;78.77;98352.19;5004427;28;20033;-81
2022/12/02 11:05:08;;;;;;;34.75;13.25;;;;;;;4.64;79.99;98342.50;5004912;28;20042;-81
2022/12/02 11:07:34;;;;;;;29.75;13.52;;;;;;;4.65;79.15;98354.50;5002895;28;20034;-81
2022/12/02 11:10:00;;;;;;;31.92;13.18;;;;;;;4.74;80.25;98348.41;5004513;28;20111;-81
2022/12/02 11:12:51;;;;;;;32.70;13.32;;;;;;;4.80;79.12;98346.97;5003385;28;20559;-82
2022/12/02 11:15:46;;;;;;;30.13;12.93;;;;;;;4.88;79.90;98343.56;5004002;28;20042;-81
2022/12/02 11:18:26;;;;;;;29.42;12.75;;;;;;;4.70;76.90;98344.47;5005457;28;20065;-81
2022/12/02 11:20:54;;;;;;;28.58;13.00;;;;;;;4.66;78.44;98350.94;5005118;28;20038;-82
2022/12/02 11:23:28;;;;;;;31.30;13.02;;;;;;;4.63;78.28;98347.84;5001195;28;20029;-81
2022/12/02 11:26:03;;;;;;;28.60;13.57;;;;;;;4.68;80.11;98337.78;5001647;28;20080;-82
2022/12/02 11:28:28;;;;;;;27.50;11.70;;;;;;;4.60;81.18;98330.78;4999922;28;20068;-81
2022/12/02 11:31:09;;;;;;;30.65;13.18;;;;;;;4.68;81.37;98341.22;4999119;28;20173;-81
2022/12/02 11:33:54;;;;;;;30.55;13.90;;;;;;;4.75;80.93;98338.81;4996145;28;20175;-82
2022/12/02 11:36:26;;;;;;;29.55;12.60;;;;;;;4.63;79.73;98327.06;5001760;28;20508;-81
2022/12/02 11:38:51;;;;;;;29.02;13.10;;;;;;;4.70;79.67;98336.69;5002883;28;20452;-82
2022/12/02 11:41:26;;;;;;;29.33;12.65;;;;;;;4.50;79.45;98330.91;5002747;28;20121;-82
2022/12/02 11:44:22;;;;;;;25.88;13.25;;;;;;;4.58;81.22;98322.34;4999211;28;20100;-81
2022/12/02 11:46:51;;;;;;;33.78;14.05;;;;;;;4.67;80.39;98331.78;5001692;28;20052;-81